Time;durP1;ratioP1;P1;durP2;ratioP2;P2;SDS_P1;SDS_P2;PMS_P1;PMS_P2;Temp;Humidity;BMP_temperature;BMP_pressure;BME280_temperature;BME280_humidity;BME280_pressure;Samples;Min_cycle;Max_cycle;Signal;HPM_P1;HPM_P2
2021/11/28 00:01:14;;;;;;;42.87;20.00;;;3.50;99.90;;;;;;5128586;27;20274;-69
2021/11/28 00:03:43;;;;;;;44.87;19.97;;;3.50;99.90;;;;;;5150609;27;20193;-70
2021/11/28 00:06:22;;;;;;;42.77;20.40;;;3.50;99.90;;;;;;5144960;27;20204;-69
2021/11/28 00:09:21;;;;;;;40.73;19.20;;;3.50;99.90;;;;;;5119622;27;20198;-69
2021/11/28 00:12:07;;;;;;;45.27;19.47;;;3.50;99.90;;;;;;5142246;27;20201;-69
2021/11/28 00:14:37;;;;;;;32.40;17.47;;;3.60;99.90;;;;;;5147859;27;20204;-69
2021/11/28 00:17:07;;;;;;;39.20;17.97;;;3.60;99.90;;;;;;5152727;27;20291;-69
2021/11/28 00:19:37;;;;;;;36.73;18.13;;;3.60;99.90;;;;;;5146564;27;20268;-69
2021/11/28 00:22:06;;;;;;;37.27;19.07;;;3.70;99.90;;;;;;5122501;27;20194;-69
2021/11/28 00:24:37;;;;;;;37.43;18.43;;;3.70;99.90;;;;;;5130872;27;20723;-70
2021/11/28 00:27:06;;;;;;;36.53;17.13;;;3.70;99.90;;;;;;5143345;27;20193;-69
2021/11/28 00:29:41;;;;;;;31.77;15.83;;;3.80;99.90;;;;;;5143576;27;20184;-69
2021/11/28 00:32:10;;;;;;;32.03;15.63;;;3.80;99.90;;;;;;5147648;27;20192;-69
2021/11/28 00:34:39;;;;;;;31.87;15.60;;;3.80;99.90;;;;;;5155366;27;20249;-69
2021/11/28 00:37:11;;;;;;;32.97;14.93;;;3.80;99.90;;;;;;5148279;27;20301;-69
2021/11/28 00:39:39;;;;;;;26.97;14.53;;;3.80;99.90;;;;;;5142637;27;20217;-69
2021/11/28 00:42:07;;;;;;;24.83;13.83;;;3.70;99.90;;;;;;5121995;27;20228;-69
2021/11/28 00:44:36;;;;;;;23.43;13.97;;;3.60;99.90;;;;;;5147675;27;20229;-69
2021/11/28 00:47:05;;;;;;;27.17;13.07;;;3.60;99.90;;;;;;5142268;27;20185;-69
2021/11/28 00:49:37;;;;;;;23.20;12.77;;;3.50;99.90;;;;;;5145169;27;20593;-69
2021/11/28 00:52:10;;;;;;;26.77;13.17;;;3.50;99.90;;;;;;5148714;27;20212;-69
2021/11/28 00:54:38;;;;;;;22.87;12.43;;;3.50;99.90;;;;;;5147070;27;20674;-69
2021/11/28 00:57:08;;;;;;;24.63;12.17;;;3.50;99.90;;;;;;5110359;27;20200;-69
2021/11/28 00:59:36;;;;;;;25.97;12.83;;;3.50;99.90;;;;;;5141586;27;20201;-69
2021/11/28 01:02:05;;;;;;;20.87;12.63;;;3.40;99.90;;;;;;5122064;27;20194;-69
2021/11/28 01:05:13;;;;;;;23.37;11.97;;;3.40;99.90;;;;;;5143644;27;20197;-69
2021/11/28 01:08:00;;;;;;;24.50;11.77;;;3.30;99.90;;;;;;5120728;27;20185;-68
2021/11/28 01:10:29;;;;;;;20.47;12.20;;;3.20;99.90;;;;;;5117660;27;20201;-69
2021/11/28 01:12:58;;;;;;;24.50;12.37;;;3.20;99.90;;;;;;5143008;27;21014;-69
2021/11/28 01:15:26;;;;;;;20.33;11.50;;;3.20;99.90;;;;;;5132454;27;20611;-68
2021/11/28 01:17:55;;;;;;;25.10;11.87;;;3.20;99.90;;;;;;5121554;27;20201;-69
2021/11/28 01:20:24;;;;;;;22.77;11.63;;;3.20;99.90;;;;;;5148613;27;20196;-69
2021/11/28 01:22:53;;;;;;;22.30;12.03;;;3.30;99.90;;;;;;5142576;27;20228;-70
2021/11/28 01:25:22;;;;;;;19.50;11.03;;;3.20;99.90;;;;;;5146302;27;20261;-69
2021/11/28 01:27:53;;;;;;;22.33;11.33;;;3.20;99.90;;;;;;5143109;27;20620;-69
2021/11/28 01:30:21;;;;;;;22.30;10.07;;;3.20;99.90;;;;;;5146719;27;20629;-69
2021/11/28 01:32:50;;;;;;;20.73;10.53;;;3.20;99.90;;;;;;5123225;27;20281;-69
2021/11/28 01:35:19;;;;;;;24.50;11.30;;;3.20;99.90;;;;;;5147648;27;20552;-69
2021/11/28 01:37:49;;;;;;;23.33;11.70;;;3.20;99.90;;;;;;5146132;27;20244;-69
2021/11/28 01:40:20;;;;;;;21.00;11.33;;;3.20;99.90;;;;;;5140812;27;20202;-69
2021/11/28 01:42:50;;;;;;;25.03;11.23;;;3.20;99.90;;;;;;5147397;27;20246;-70
2021/11/28 01:45:25;;;;;;;27.00;11.23;;;3.20;99.90;;;;;;5146649;27;20312;-69
2021/11/28 01:47:55;;;;;;;24.23;10.87;;;3.10;99.90;;;;;;5146507;27;20197;-69
2021/11/28 01:50:27;;;;;;;24.50;11.20;;;3.10;99.90;;;;;;5127250;27;20282;-69
2021/11/28 01:52:57;;;;;;;28.07;10.90;;;3.10;99.90;;;;;;5145566;27;21468;-69
2021/11/28 01:55:28;;;;;;;30.47;11.80;;;3.10;99.90;;;;;;5144368;27;20190;-69
2021/11/28 01:57:58;;;;;;;25.73;11.80;;;3.10;99.90;;;;;;5140116;27;20224;-69
2021/11/28 02:00:29;;;;;;;28.67;12.23;;;3.00;99.90;;;;;;5125593;27;20245;-69
2021/11/28 02:02:59;;;;;;;28.43;12.10;;;3.00;99.90;;;;;;5140158;27;20224;-69
2021/11/28 02:05:29;;;;;;;32.97;12.20;;;2.90;99.90;;;;;;5151105;27;20617;-69
2021/11/28 02:07:59;;;;;;;25.93;12.57;;;2.90;99.90;;;;;;5148363;27;20647;-69
2021/11/28 02:10:28;;;;;;;33.40;13.23;;;2.80;99.90;;;;;;5132061;27;20198;-69
2021/11/28 02:12:57;;;;;;;30.53;13.60;;;2.80;99.90;;;;;;5145574;27;20194;-69
2021/11/28 02:15:25;;;;;;;43.10;14.07;;;2.70;99.90;;;;;;5144436;27;20193;-69
2021/11/28 02:17:56;;;;;;;37.63;15.20;;;2.70;99.90;;;;;;5130632;27;20230;-69
2021/11/28 02:20:27;;;;;;;40.73;15.37;;;2.70;99.90;;;;;;5153260;27;20201;-70
2021/11/28 02:22:58;;;;;;;40.30;17.10;;;2.70;99.90;;;;;;5144098;27;20742;-69
2021/11/28 02:25:27;;;;;;;44.00;17.27;;;2.70;99.90;;;;;;5145252;27;20226;-69
2021/11/28 02:27:57;;;;;;;43.03;17.67;;;2.70;99.90;;;;;;5130865;27;20185;-69
2021/11/28 02:30:26;;;;;;;51.60;17.97;;;2.70;99.90;;;;;;5145687;27;20197;-69
2021/11/28 02:32:56;;;;;;;49.47;17.43;;;2.70;99.90;;;;;;5144104;27;20688;-69
2021/11/28 02:35:26;;;;;;;50.73;19.33;;;2.70;99.90;;;;;;5129316;27;20197;-69
2021/11/28 02:37:57;;;;;;;53.43;20.23;;;2.60;99.90;;;;;;5150043;27;20571;-69
2021/11/28 02:40:27;;;;;;;60.40;21.17;;;2.70;99.90;;;;;;5110042;27;20683;-69
2021/11/28 02:42:57;;;;;;;52.20;20.80;;;2.70;99.90;;;;;;5126584;27;20431;-69
2021/11/28 02:45:28;;;;;;;62.03;22.17;;;2.80;99.90;;;;;;5137458;27;20234;-69
2021/11/28 02:47:58;;;;;;;57.07;22.53;;;2.90;99.90;;;;;;5145492;27;20292;-69
2021/11/28 02:50:28;;;;;;;63.27;25.00;;;3.00;99.90;;;;;;5142676;27;20863;-70
2021/11/28 02:53:01;;;;;;;65.67;25.17;;;3.10;99.90;;;;;;5145890;27;20836;-69
2021/11/28 02:55:33;;;;;;;68.87;24.77;;;3.10;99.90;;;;;;5125585;27;20194;-70
2021/11/28 02:58:03;;;;;;;73.17;25.57;;;3.20;99.90;;;;;;5146605;27;20211;-68
2021/11/28 03:00:33;;;;;;;81.27;27.30;;;3.20;99.90;;;;;;5120942;27;20194;-69
2021/11/28 03:03:02;;;;;;;73.00;28.30;;;3.20;99.90;;;;;;5141784;27;20261;-69
2021/11/28 03:05:31;;;;;;;79.70;29.53;;;3.20;99.90;;;;;;5129057;27;20273;-69
2021/11/28 03:08:01;;;;;;;89.80;31.00;;;3.30;99.90;;;;;;5148360;27;20221;-70
2021/11/28 03:10:32;;;;;;;88.13;30.47;;;3.30;99.90;;;;;;5138921;27;20189;-69
2021/11/28 03:13:01;;;;;;;97.07;30.77;;;3.40;99.90;;;;;;5136908;27;20201;-69
2021/11/28 03:15:30;;;;;;;91.27;33.03;;;3.50;99.90;;;;;;5143730;27;20200;-70
2021/11/28 03:17:59;;;;;;;94.13;33.37;;;3.50;99.90;;;;;;5147748;27;20616;-70
2021/11/28 03:20:28;;;;;;;94.60;32.70;;;3.50;99.90;;;;;;5129378;27;20198;-69
2021/11/28 03:22:56;;;;;;;99.50;34.60;;;3.50;99.90;;;;;;5146303;27;20196;-69
2021/11/28 03:25:26;;;;;;;102.33;34.63;;;3.50;99.90;;;;;;5140389;27;20272;-69
2021/11/28 03:27:54;;;;;;;93.73;32.67;;;3.50;99.90;;;;;;5123594;27;20221;-69
2021/11/28 03:30:24;;;;;;;93.40;33.10;;;3.50;99.90;;;;;;5123483;27;20186;-69
2021/11/28 03:32:52;;;;;;;95.90;33.53;;;3.50;99.90;;;;;;5147937;27;20239;-70
2021/11/28 03:35:21;;;;;;;93.17;33.27;;;3.50;99.90;;;;;;5145781;27;20221;-70
2021/11/28 03:37:50;;;;;;;108.13;35.63;;;3.60;99.90;;;;;;5127261;27;20200;-69
2021/11/28 03:40:18;;;;;;;102.70;34.43;;;3.60;99.90;;;;;;5134956;27;20214;-69
2021/11/28 03:42:48;;;;;;;111.50;36.60;;;3.60;99.90;;;;;;5149953;27;20652;-70
2021/11/28 03:45:19;;;;;;;106.83;36.23;;;3.60;99.90;;;;;;5143904;27;20229;-69
2021/11/28 03:47:48;;;;;;;107.53;36.03;;;3.60;99.90;;;;;;5150828;27;20262;-70
2021/11/28 03:50:16;;;;;;;104.47;34.63;;;3.60;99.90;;;;;;5142603;27;20656;-69
2021/11/28 03:52:45;;;;;;;100.93;35.13;;;3.60;99.90;;;;;;5130202;27;20197;-69
2021/11/28 03:55:15;;;;;;;108.70;36.43;;;3.60;99.90;;;;;;5143190;27;20678;-69
2021/11/28 03:57:48;;;;;;;108.73;36.63;;;3.60;99.90;;;;;;5144523;27;20255;-69
2021/11/28 04:00:20;;;;;;;93.40;34.17;;;3.70;99.90;;;;;;5145977;27;20213;-69
2021/11/28 04:02:50;;;;;;;99.87;35.70;;;3.60;99.90;;;;;;5140061;27;20206;-69
2021/11/28 04:05:20;;;;;;;95.77;33.77;;;3.60;99.90;;;;;;5148391;27;20202;-70
2021/11/28 04:07:48;;;;;;;95.00;34.00;;;3.50;99.90;;;;;;5145516;27;20276;-70
2021/11/28 04:10:16;;;;;;;95.47;35.57;;;3.50;99.90;;;;;;5148743;27;20212;-69
2021/11/28 04:12:51;;;;;;;110.47;36.13;;;3.40;99.90;;;;;;5129390;27;20276;-70
2021/11/28 04:15:19;;;;;;;110.77;36.60;;;3.40;99.90;;;;;;5128250;27;20185;-69
2021/11/28 04:17:48;;;;;;;103.53;35.00;;;3.40;99.90;;;;;;5150238;27;20284;-70
2021/11/28 04:20:17;;;;;;;103.70;36.23;;;3.40;99.90;;;;;;5128745;27;20226;-70
2021/11/28 04:22:45;;;;;;;106.40;36.50;;;3.40;99.90;;;;;;5129303;27;20185;-69
2021/11/28 04:25:14;;;;;;;107.50;36.90;;;3.40;99.90;;;;;;5148007;27;20197;-69
2021/11/28 04:27:43;;;;;;;110.73;36.00;;;3.50;99.90;;;;;;5153170;27;20202;-69
2021/11/28 04:30:14;;;;;;;96.03;34.10;;;3.40;99.90;;;;;;5127811;27;20206;-69
2021/11/28 04:32:43;;;;;;;98.37;34.10;;;3.50;99.90;;;;;;5135603;27;20194;-69
2021/11/28 04:35:12;;;;;;;101.23;34.03;;;3.40;99.90;;;;;;5116734;27;20248;-70
2021/11/28 04:37:44;;;;;;;96.83;34.40;;;3.50;99.90;;;;;;5145369;27;20185;-69
2021/11/28 04:40:13;;;;;;;99.53;34.27;;;3.50;99.90;;;;;;5154123;27;20254;-69
2021/11/28 04:42:41;;;;;;;102.13;33.10;;;3.50;99.90;;;;;;5124107;27;20193;-69
2021/11/28 04:45:11;;;;;;;89.00;31.07;;;3.50;99.90;;;;;;5143829;27;20268;-69
2021/11/28 04:47:42;;;;;;;87.80;31.90;;;3.50;99.90;;;;;;5153079;27;20189;-69
2021/11/28 04:50:14;;;;;;;87.83;31.60;;;3.40;99.90;;;;;;5142700;27;20205;-69
2021/11/28 04:52:43;;;;;;;85.67;30.07;;;3.40;99.90;;;;;;5155023;27;20668;-69
2021/11/28 04:55:14;;;;;;;87.53;31.07;;;3.40;99.90;;;;;;5149924;27;20282;-70
2021/11/28 04:57:43;;;;;;;86.93;29.87;;;3.40;99.90;;;;;;5130306;27;20197;-69
2021/11/28 05:00:16;;;;;;;76.43;29.27;;;3.30;99.90;;;;;;5150481;27;20204;-69
2021/11/28 05:02:46;;;;;;;76.30;28.27;;;3.20;99.90;;;;;;5133994;27;20194;-69
2021/11/28 05:05:15;;;;;;;75.70;26.77;;;3.10;99.90;;;;;;5123343;27;21264;-69
2021/11/28 05:07:44;;;;;;;79.37;27.73;;;3.00;99.90;;;;;;5149683;27;20197;-69
2021/11/28 05:10:12;;;;;;;71.37;26.67;;;2.90;99.90;;;;;;5145909;27;20206;-70
2021/11/28 05:12:42;;;;;;;72.73;26.13;;;2.80;99.90;;;;;;5148436;27;20684;-69
2021/11/28 05:15:11;;;;;;;72.63;26.33;;;2.60;99.90;;;;;;5139288;27;20197;-69
2021/11/28 05:17:40;;;;;;;74.87;27.40;;;2.50;99.90;;;;;;5149037;27;20643;-69
2021/11/28 05:20:10;;;;;;;73.43;27.37;;;2.40;99.90;;;;;;5144424;27;20778;-69
2021/11/28 05:22:39;;;;;;;80.47;27.13;;;2.40;99.90;;;;;;5147757;27;20881;-69
2021/11/28 05:25:09;;;;;;;71.27;26.63;;;2.30;99.90;;;;;;5146768;27;20682;-68
2021/11/28 05:27:38;;;;;;;88.40;29.50;;;2.20;99.90;;;;;;5152718;27;20221;-69
2021/11/28 05:30:07;;;;;;;84.00;29.10;;;2.20;99.90;;;;;;5124499;27;20561;-69
2021/11/28 05:32:36;;;;;;;76.50;27.93;;;2.10;99.90;;;;;;5125239;27;20225;-69
2021/11/28 05:35:05;;;;;;;85.27;29.57;;;2.10;99.90;;;;;;5144926;27;20699;-69
2021/11/28 05:37:35;;;;;;;87.83;31.53;;;2.00;99.90;;;;;;5156343;27;20650;-69
2021/11/28 05:40:05;;;;;;;90.57;29.27;;;2.00;99.90;;;;;;5141305;27;20213;-69
2021/11/28 05:42:34;;;;;;;91.27;31.23;;;2.00;99.90;;;;;;5141700;27;20205;-69
2021/11/28 05:45:02;;;;;;;89.93;29.90;;;1.90;99.90;;;;;;5146260;27;20882;-69
2021/11/28 05:47:31;;;;;;;86.57;32.37;;;1.90;99.90;;;;;;5145552;27;20202;-69
2021/11/28 05:50:00;;;;;;;87.57;30.43;;;1.90;99.90;;;;;;5124902;27;20186;-69
2021/11/28 05:52:28;;;;;;;89.73;31.87;;;1.80;99.90;;;;;;5156921;27;20571;-69
2021/11/28 05:54:58;;;;;;;91.40;30.57;;;1.70;99.90;;;;;;5149774;27;20603;-69
2021/11/28 05:57:26;;;;;;;89.33;31.27;;;1.70;99.90;;;;;;5145962;27;20195;-69
2021/11/28 05:59:55;;;;;;;92.20;30.63;;;1.60;99.90;;;;;;5146130;27;20213;-69
2021/11/28 06:02:23;;;;;;;96.17;31.47;;;1.60;99.90;;;;;;5147003;27;20290;-69
2021/11/28 06:05:30;;;;;;;93.13;32.73;;;1.60;99.90;;;;;;5147900;27;20269;-69
2021/11/28 06:08:01;;;;;;;96.03;30.47;;;1.60;99.90;;;;;;5128091;27;20182;-69
2021/11/28 06:10:31;;;;;;;93.33;31.83;;;1.60;99.90;;;;;;5146871;27;20251;-69
2021/11/28 06:12:59;;;;;;;100.17;31.43;;;1.60;99.90;;;;;;5148571;27;20225;-69
2021/11/28 06:15:28;;;;;;;89.10;30.20;;;1.60;99.90;;;;;;5139293;27;20206;-69
2021/11/28 06:17:56;;;;;;;96.80;30.37;;;1.60;99.90;;;;;;5126730;27;20648;-69
2021/11/28 06:20:25;;;;;;;98.90;31.03;;;1.50;99.90;;;;;;5128107;27;20213;-69
2021/11/28 06:22:54;;;;;;;92.30;31.63;;;1.50;99.90;;;;;;5148215;27;20217;-69
2021/11/28 06:25:22;;;;;;;98.73;33.03;;;1.60;99.90;;;;;;5144223;27;20273;-69
2021/11/28 06:28:07;;;;;;;99.70;33.00;;;1.50;99.90;;;;;;5145932;27;20670;-69
2021/11/28 06:30:36;;;;;;;93.20;31.93;;;1.60;99.90;;;;;;5144326;27;20294;-68
2021/11/28 06:33:05;;;;;;;103.47;30.97;;;1.60;99.90;;;;;;5148879;27;20220;-69
2021/11/28 06:35:33;;;;;;;93.83;31.27;;;1.50;99.90;;;;;;5147719;27;20284;-69
2021/11/28 06:38:02;;;;;;;86.33;29.97;;;1.50;99.90;;;;;;5129554;27;20236;-68
2021/11/28 06:40:30;;;;;;;103.43;31.13;;;1.50;99.90;;;;;;5146520;27;20764;-69
2021/11/28 06:42:58;;;;;;;92.67;30.77;;;1.50;99.90;;;;;;5144606;27;20194;-69
2021/11/28 06:45:28;;;;;;;89.13;29.70;;;1.40;99.90;;;;;;5155116;27;20225;-69
2021/11/28 06:47:58;;;;;;;97.57;30.23;;;1.40;99.90;;;;;;5113679;27;20213;-68
2021/11/28 06:50:26;;;;;;;90.80;30.73;;;1.40;99.90;;;;;;5125061;27;20186;-69
2021/11/28 06:52:55;;;;;;;89.30;30.23;;;1.40;99.90;;;;;;5152430;27;20263;-69
2021/11/28 06:55:24;;;;;;;93.30;31.80;;;1.40;99.90;;;;;;5144801;27;20284;-68
2021/11/28 06:57:52;;;;;;;98.60;32.93;;;1.40;99.90;;;;;;5147023;27;20201;-68
2021/11/28 07:00:22;;;;;;;102.83;33.07;;;1.40;99.90;;;;;;5143787;27;20220;-69
2021/11/28 07:02:52;;;;;;;90.53;30.70;;;1.40;99.90;;;;;;5125996;27;20210;-68
2021/11/28 07:05:20;;;;;;;92.93;28.77;;;1.30;99.90;;;;;;5145783;27;20196;-69
2021/11/28 07:07:49;;;;;;;92.43;29.87;;;1.30;99.90;;;;;;5138315;27;20661;-69
2021/11/28 07:10:17;;;;;;;86.03;29.53;;;1.30;99.90;;;;;;5143450;27;21506;-69
2021/11/28 07:12:46;;;;;;;87.80;28.83;;;1.20;99.90;;;;;;5126114;27;20221;-68
2021/11/28 07:15:15;;;;;;;89.63;28.27;;;1.20;99.90;;;;;;5124712;27;20643;-69
2021/11/28 07:17:43;;;;;;;85.43;28.83;;;1.20;99.90;;;;;;5127885;27;20698;-68
2021/11/28 07:20:13;;;;;;;85.63;29.13;;;1.20;99.90;;;;;;5139343;27;20715;-68
2021/11/28 07:22:42;;;;;;;82.83;27.80;;;1.20;99.90;;;;;;5149679;27;20205;-68
2021/11/28 07:25:10;;;;;;;86.50;28.00;;;1.10;99.90;;;;;;5146679;27;20621;-69
2021/11/28 07:27:39;;;;;;;84.20;31.77;;;1.10;99.90;;;;;;5124577;27;20205;-69
2021/11/28 07:30:08;;;;;;;91.00;34.17;;;1.10;99.90;;;;;;5141988;27;20189;-68
2021/11/28 07:32:37;;;;;;;98.90;33.87;;;1.10;99.90;;;;;;5143724;27;20328;-68
2021/11/28 07:35:05;;;;;;;95.03;34.47;;;1.20;99.90;;;;;;5143162;27;20197;-69
2021/11/28 07:37:36;;;;;;;98.67;33.07;;;1.30;99.90;;;;;;5127955;27;20228;-68
2021/11/28 07:40:06;;;;;;;93.23;33.67;;;1.30;99.90;;;;;;5144681;27;20263;-68
2021/11/28 07:42:34;;;;;;;108.33;36.83;;;1.40;99.90;;;;;;5148414;27;20282;-68
2021/11/28 07:45:09;;;;;;;100.30;35.17;;;1.40;99.90;;;;;;5153749;27;20281;-68
2021/11/28 07:47:37;;;;;;;134.90;40.53;;;1.60;99.90;;;;;;5150657;27;20190;-69
2021/11/28 07:50:09;;;;;;;105.27;35.27;;;1.60;99.90;;;;;;5152855;27;20272;-69
2021/11/28 07:52:42;;;;;;;104.23;34.57;;;1.70;99.90;;;;;;5132864;27;20933;-68
2021/11/28 07:55:10;;;;;;;91.57;33.70;;;1.70;99.90;;;;;;5151317;27;20242;-69
2021/11/28 07:57:39;;;;;;;96.60;33.60;;;1.80;99.90;;;;;;5148663;27;20270;-69
2021/11/28 08:00:08;;;;;;;99.13;33.23;;;1.80;99.90;;;;;;5146164;27;20273;-69
2021/11/28 08:02:37;;;;;;;101.37;36.30;;;1.90;99.90;;;;;;5138632;27;20300;-69
2021/11/28 08:05:07;;;;;;;115.07;40.50;;;2.00;99.90;;;;;;5148668;27;20200;-69
2021/11/28 08:07:35;;;;;;;93.03;34.57;;;2.20;99.90;;;;;;5136004;27;20517;-69
2021/11/28 08:10:07;;;;;;;94.50;37.07;;;2.20;99.90;;;;;;5151378;27;20815;-69
2021/11/28 08:12:35;;;;;;;101.43;37.73;;;2.40;99.90;;;;;;5123009;27;20250;-69
2021/11/28 08:15:06;;;;;;;95.83;37.30;;;2.50;99.90;;;;;;5126011;27;20201;-70
2021/11/28 08:17:38;;;;;;;88.47;36.17;;;2.60;99.90;;;;;;5147592;27;20206;-69
2021/11/28 08:20:08;;;;;;;108.20;38.77;;;2.60;99.90;;;;;;5124061;27;20201;-70
2021/11/28 08:22:37;;;;;;;93.20;35.87;;;2.70;99.90;;;;;;5155252;27;20304;-69
2021/11/28 08:25:10;;;;;;;82.30;33.77;;;2.80;99.90;;;;;;5149055;27;20229;-70
2021/11/28 08:27:38;;;;;;;82.53;33.60;;;2.90;99.90;;;;;;5112938;27;20227;-69
2021/11/28 08:30:11;;;;;;;78.67;33.43;;;3.10;99.90;;;;;;5143458;27;20197;-70
2021/11/28 08:32:41;;;;;;;69.03;30.87;;;3.10;99.90;;;;;;5130536;27;20650;-70
2021/11/28 08:35:10;;;;;;;70.47;31.50;;;3.30;99.90;;;;;;5147324;27;20201;-69
2021/11/28 08:37:39;;;;;;;69.67;31.43;;;3.40;99.90;;;;;;5149273;27;20200;-70
2021/11/28 08:40:12;;;;;;;66.17;30.63;;;3.60;99.90;;;;;;5136250;27;20242;-70
2021/11/28 08:42:43;;;;;;;63.10;29.87;;;3.80;99.90;;;;;;5144143;27;20210;-71
2021/11/28 08:45:13;;;;;;;63.50;31.27;;;4.00;99.90;;;;;;5148157;27;20239;-70
2021/11/28 08:47:42;;;;;;;64.87;30.70;;;4.20;99.90;;;;;;5153549;27;20242;-69
2021/11/28 08:50:14;;;;;;;66.73;31.30;;;4.50;99.90;;;;;;5123986;27;20251;-70
2021/11/28 08:52:44;;;;;;;56.17;28.70;;;4.70;99.90;;;;;;5149905;27;20208;-69
2021/11/28 08:55:16;;;;;;;46.63;26.67;;;4.80;99.90;;;;;;5150307;27;20242;-71
2021/11/28 08:57:45;;;;;;;52.70;27.87;;;4.70;99.90;;;;;;5146437;27;20201;-71
2021/11/28 09:00:16;;;;;;;63.57;30.83;;;4.50;99.90;;;;;;5134918;27;20234;-71
2021/11/28 09:02:50;;;;;;;70.40;33.27;;;4.40;99.90;;;;;;5152298;27;20217;-71
2021/11/28 09:05:20;;;;;;;63.43;31.50;;;4.40;99.90;;;;;;5156577;27;20620;-70
2021/11/28 09:07:50;;;;;;;75.97;35.13;;;4.30;99.90;;;;;;5146205;27;20273;-70
2021/11/28 09:10:21;;;;;;;69.20;30.60;;;4.30;99.90;;;;;;5128656;27;20645;-69
2021/11/28 09:12:50;;;;;;;53.07;27.13;;;4.30;99.90;;;;;;5143310;27;20190;-71
2021/11/28 09:15:18;;;;;;;50.10;26.10;;;4.20;99.90;;;;;;5150243;27;20220;-71
2021/11/28 09:17:51;;;;;;;55.93;27.30;;;4.30;99.90;;;;;;5147547;27;20205;-71
2021/11/28 09:20:22;;;;;;;52.67;26.57;;;4.30;99.90;;;;;;5130418;27;20190;-71
2021/11/28 09:25:41;;;;;;;50.53;26.40;;;4.30;99.90;;;;;;5143549;27;20250;-71
2021/11/28 09:28:12;;;;;;;50.07;25.43;;;4.30;99.90;;;;;;5124061;27;20189;-70
2021/11/28 09:30:41;;;;;;;47.23;25.13;;;4.40;99.90;;;;;;5145379;27;20212;-70
2021/11/28 09:33:09;;;;;;;55.43;27.43;;;4.40;99.90;;;;;;5147523;27;20185;-70
2021/11/28 09:35:38;;;;;;;50.47;25.40;;;4.40;99.90;;;;;;5148949;27;20221;-71
2021/11/28 09:38:08;;;;;;;47.60;25.17;;;4.40;99.90;;;;;;5145293;27;20190;-70
2021/11/28 09:40:37;;;;;;;46.00;23.83;;;4.40;99.90;;;;;;5143596;27;20189;-71
2021/11/28 09:43:09;;;;;;;51.23;25.27;;;4.40;99.90;;;;;;5148684;27;20210;-71
2021/11/28 09:45:37;;;;;;;48.83;23.60;;;4.40;99.90;;;;;;5144413;27;20643;-71
2021/11/28 09:48:06;;;;;;;50.43;25.37;;;4.40;99.90;;;;;;5154857;27;20258;-70
2021/11/28 09:50:34;;;;;;;46.73;22.97;;;4.50;99.90;;;;;;5140151;27;20198;-70
2021/11/28 09:53:04;;;;;;;41.47;21.53;;;4.50;99.90;;;;;;5138446;27;20246;-70
2021/11/28 09:55:33;;;;;;;45.57;21.40;;;4.60;99.90;;;;;;5147919;27;20181;-70
2021/11/28 09:58:02;;;;;;;36.37;20.50;;;4.60;99.90;;;;;;5156761;27;20201;-71
2021/11/28 10:00:33;;;;;;;42.63;20.60;;;4.60;99.90;;;;;;5151195;27;20189;-70
2021/11/28 10:03:02;;;;;;;37.47;19.13;;;4.60;99.90;;;;;;5130091;27;20212;-70
2021/11/28 10:05:30;;;;;;;42.57;19.47;;;4.70;99.90;;;;;;5149291;27;20197;-71
2021/11/28 10:07:59;;;;;;;38.20;19.13;;;4.70;99.90;;;;;;5140362;27;20312;-70
2021/11/28 10:10:28;;;;;;;32.20;17.30;;;4.70;99.90;;;;;;5150826;27;20275;-70
2021/11/28 10:12:56;;;;;;;41.40;20.43;;;4.70;99.90;;;;;;5150360;27;20280;-70
2021/11/28 10:15:27;;;;;;;41.87;19.60;;;4.70;99.90;;;;;;5142108;27;20262;-70
2021/11/28 10:17:59;;;;;;;49.60;19.67;;;4.70;99.90;;;;;;5145108;27;20241;-71
2021/11/28 10:20:30;;;;;;;56.97;19.83;;;4.70;99.90;;;;;;5148713;27;20211;-71
2021/11/28 10:22:59;;;;;;;63.67;21.90;;;4.70;99.90;;;;;;5129457;27;20202;-70
2021/11/28 10:25:29;;;;;;;59.73;19.43;;;4.70;99.90;;;;;;5121109;27;20715;-71
2021/11/28 10:27:59;;;;;;;55.10;18.93;;;4.60;99.90;;;;;;5123037;27;20228;-71
2021/11/28 10:30:37;;;;;;;53.83;17.30;;;4.60;99.90;;;;;;5153058;27;20225;-71
2021/11/28 10:33:11;;;;;;;46.13;16.23;;;4.50;99.90;;;;;;5138116;27;20203;-71
2021/11/28 10:35:59;;;;;;;42.43;14.17;;;4.50;99.90;;;;;;5154911;27;20226;-71
2021/11/28 10:38:34;;;;;;;39.57;13.97;;;4.50;99.90;;;;;;5150343;27;20659;-71
2021/11/28 10:41:02;;;;;;;34.90;14.17;;;4.50;99.90;;;;;;5146010;27;20246;-71
2021/11/28 10:43:41;;;;;;;31.77;13.03;;;4.50;99.90;;;;;;5144757;27;20224;-71
2021/11/28 10:46:24;;;;;;;21.40;10.40;;;4.60;99.90;;;;;;5150275;27;20629;-71
2021/11/28 10:49:05;;;;;;;22.57;10.03;;;4.70;99.90;;;;;;5142866;27;20274;-71
2021/11/28 10:51:37;;;;;;;22.67;8.63;;;4.70;99.90;;;;;;5139242;27;20273;-70
2021/11/28 10:54:22;;;;;;;19.80;7.80;;;4.80;99.90;;;;;;5153686;27;20193;-71
2021/11/28 10:57:03;;;;;;;17.67;7.53;;;4.70;99.90;;;;;;5129663;27;20635;-71
2021/11/28 10:59:31;;;;;;;14.37;6.70;;;4.60;99.90;;;;;;5127959;27;20186;-71
2021/11/28 11:01:59;;;;;;;11.93;5.50;;;4.60;99.90;;;;;;5147479;27;20846;-71
2021/11/28 11:04:29;;;;;;;12.57;5.67;;;4.60;99.90;;;;;;5151442;27;20196;-71
2021/11/28 11:07:12;;;;;;;8.73;4.20;;;4.60;99.90;;;;;;5139724;27;20572;-71
2021/11/28 11:09:41;;;;;;;5.33;3.60;;;4.60;99.90;;;;;;5123650;27;20213;-70
2021/11/28 11:12:25;;;;;;;6.70;3.60;;;4.50;99.90;;;;;;5127546;27;20285;-71
2021/11/28 11:14:56;;;;;;;3.77;3.00;;;4.50;99.90;;;;;;5144007;27;20189;-70
2021/11/28 11:17:28;;;;;;;4.97;3.20;;;4.50;99.90;;;;;;5138639;27;20250;-71
2021/11/28 11:19:58;;;;;;;3.10;2.90;;;4.50;99.90;;;;;;5140484;27;20243;-70
2021/11/28 11:22:29;;;;;;;2.97;2.70;;;4.50;99.90;;;;;;5138187;27;20194;-70
2021/11/28 11:25:00;;;;;;;2.83;2.63;;;4.50;99.90;;;;;;5144459;27;20287;-71
2021/11/28 11:27:33;;;;;;;4.30;2.80;;;4.50;99.90;;;;;;5143835;27;20205;-70
2021/11/28 11:30:05;;;;;;;2.30;2.20;;;4.50;99.90;;;;;;5122944;27;20198;-71
2021/11/28 11:32:42;;;;;;;2.50;2.30;;;4.50;99.90;;;;;;5124990;27;20204;-70
2021/11/28 11:35:17;;;;;;;4.83;2.63;;;4.50;99.90;;;;;;5144965;27;20686;-70
2021/11/28 11:37:48;;;;;;;3.97;2.50;;;4.50;99.90;;;;;;5130167;27;20813;-71
2021/11/28 11:40:19;;;;;;;2.30;2.20;;;4.40;99.90;;;;;;5147537;27;20197;-71
2021/11/28 11:42:51;;;;;;;2.50;2.40;;;4.40;99.90;;;;;;5139625;27;20579;-71
2021/11/28 11:45:22;;;;;;;2.43;2.30;;;4.30;99.90;;;;;;5129638;27;20316;-70
2021/11/28 11:47:51;;;;;;;2.77;2.57;;;4.30;99.90;;;;;;5152484;27;20237;-70
2021/11/28 11:50:23;;;;;;;2.67;2.50;;;4.30;99.90;;;;;;5140931;27;20213;-70
2021/11/28 11:52:52;;;;;;;3.03;2.80;;;4.20;99.90;;;;;;5145964;27;20656;-70
2021/11/28 11:55:23;;;;;;;3.33;2.63;;;4.20;99.90;;;;;;5126556;27;20220;-70
2021/11/28 11:58:02;;;;;;;2.50;2.43;;;4.30;99.90;;;;;;5128275;27;20228;-70
2021/11/28 12:00:37;;;;;;;2.87;2.50;;;4.10;99.90;;;;;;5151415;27;20251;-70
2021/11/28 12:03:14;;;;;;;2.80;2.70;;;4.10;99.90;;;;;;5147783;27;20209;-69
2021/11/28 12:05:46;;;;;;;3.60;3.07;;;4.00;99.90;;;;;;5149544;27;21208;-70
2021/11/28 12:08:24;;;;;;;3.90;2.60;;;3.90;99.90;;;;;;5126150;27;20238;-69
2021/11/28 12:10:59;;;;;;;3.07;2.73;;;3.90;99.90;;;;;;5141669;27;20192;-70
2021/11/28 12:14:01;;;;;;;3.17;2.97;;;3.90;99.90;;;;;;5131841;27;20185;-70
2021/11/28 12:16:37;;;;;;;2.90;2.80;;;3.90;99.90;;;;;;5118778;27;20213;-70
2021/11/28 12:19:05;;;;;;;2.80;2.70;;;4.00;99.90;;;;;;5134680;27;20188;-70
2021/11/28 12:21:53;;;;;;;3.20;3.00;;;4.00;99.90;;;;;;5146662;27;20257;-70
2021/11/28 12:24:24;;;;;;;3.33;3.23;;;4.00;99.90;;;;;;5151618;27;20205;-70
2021/11/28 12:26:55;;;;;;;3.43;3.13;;;4.00;99.90;;;;;;5146315;27;20194;-69
2021/11/28 12:29:46;;;;;;;3.20;3.10;;;4.00;99.90;;;;;;5148066;27;20219;-69
2021/11/28 12:32:29;;;;;;;3.20;3.10;;;4.20;99.90;;;;;;5143819;27;20202;-70
2021/11/28 12:35:02;;;;;;;3.57;3.37;;;4.20;99.90;;;;;;5149682;27;20663;-70
2021/11/28 12:37:40;;;;;;;4.50;3.37;;;4.20;99.90;;;;;;5144325;27;20627;-70
2021/11/28 12:40:28;;;;;;;3.77;3.40;;;4.20;99.90;;;;;;5114200;27;20185;-70
2021/11/28 12:43:13;;;;;;;3.83;3.53;;;4.10;99.90;;;;;;5142707;27;20197;-70
2021/11/28 12:45:42;;;;;;;3.70;3.50;;;4.20;99.90;;;;;;5144296;27;20225;-70
2021/11/28 12:48:17;;;;;;;3.60;3.50;;;4.20;99.90;;;;;;5144285;27;20589;-70
2021/11/28 12:50:54;;;;;;;3.97;3.50;;;4.30;99.90;;;;;;5145488;27;22169;-70
2021/11/28 12:53:29;;;;;;;3.63;3.33;;;4.30;99.90;;;;;;5145713;27;20185;-70
2021/11/28 12:56:18;;;;;;;4.20;3.90;;;4.30;99.90;;;;;;5145945;27;20689;-70
2021/11/28 12:59:19;;;;;;;3.30;3.20;;;4.30;99.90;;;;;;5156434;27;20185;-70
2021/11/28 13:02:00;;;;;;;3.70;3.50;;;4.40;99.90;;;;;;5160456;27;20202;-69